sensor_id;sensor_type;location;lat;lon;timestamp;P1;durP1;ratioP1;P2;durP2;ratioP2
803;SDS011;25687;49.976;8.240;2023-09-30T00:00:35;10.23;;;4.00;;
803;SDS011;25687;49.976;8.240;2023-09-30T00:03:01;8.20;;;3.47;;
803;SDS011;25687;49.976;8.240;2023-09-30T00:05:27;8.93;;;4.00;;
803;SDS011;25687;49.976;8.240;2023-09-30T00:07:52;6.90;;;3.73;;
803;SDS011;25687;49.976;8.240;2023-09-30T00:10:17;7.03;;;3.23;;
803;SDS011;25687;49.976;8.240;2023-09-30T00:12:42;7.13;;;3.87;;
803;SDS011;25687;49.976;8.240;2023-09-30T00:15:08;4.03;;;3.50;;
803;SDS011;25687;49.976;8.240;2023-09-30T00:17:34;7.83;;;3.83;;
803;SDS011;25687;49.976;8.240;2023-09-30T00:19:59;6.43;;;3.30;;
803;SDS011;25687;49.976;8.240;2023-09-30T00:22:24;6.40;;;3.67;;
803;SDS011;25687;49.976;8.240;2023-09-30T00:24:50;8.37;;;3.83;;
803;SDS011;25687;49.976;8.240;2023-09-30T00:27:15;8.67;;;4.30;;
803;SDS011;25687;49.976;8.240;2023-09-30T00:29:41;10.80;;;3.80;;
803;SDS011;25687;49.976;8.240;2023-09-30T00:32:06;7.63;;;3.70;;
803;SDS011;25687;49.976;8.240;2023-09-30T00:34:32;6.90;;;3.87;;
803;SDS011;25687;49.976;8.240;2023-09-30T00:36:59;7.43;;;4.17;;
803;SDS011;25687;49.976;8.240;2023-09-30T00:39:24;9.20;;;3.90;;
803;SDS011;25687;49.976;8.240;2023-09-30T00:41:52;11.53;;;4.97;;
803;SDS011;25687;49.976;8.240;2023-09-30T00:44:17;7.17;;;3.70;;
803;SDS011;25687;49.976;8.240;2023-09-30T00:46:43;5.17;;;3.67;;
803;SDS011;25687;49.976;8.240;2023-09-30T00:49:08;8.13;;;3.63;;
803;SDS011;25687;49.976;8.240;2023-09-30T00:51:35;8.30;;;4.00;;
803;SDS011;25687;49.976;8.240;2023-09-30T00:54:01;8.67;;;4.70;;
803;SDS011;25687;49.976;8.240;2023-09-30T00:56:27;7.13;;;3.87;;
803;SDS011;25687;49.976;8.240;2023-09-30T00:58:54;5.17;;;3.57;;
803;SDS011;25687;49.976;8.240;2023-09-30T01:01:20;8.33;;;4.20;;
803;SDS011;25687;49.976;8.240;2023-09-30T01:03:46;11.17;;;4.13;;
803;SDS011;25687;49.976;8.240;2023-09-30T01:06:12;7.50;;;3.93;;
803;SDS011;25687;49.976;8.240;2023-09-30T01:08:38;6.10;;;4.20;;
803;SDS011;25687;49.976;8.240;2023-09-30T01:11:04;9.83;;;4.43;;
803;SDS011;25687;49.976;8.240;2023-09-30T01:13:33;6.80;;;3.70;;
803;SDS011;25687;49.976;8.240;2023-09-30T01:16:03;9.53;;;4.77;;
803;SDS011;25687;49.976;8.240;2023-09-30T01:18:32;12.93;;;5.47;;
803;SDS011;25687;49.976;8.240;2023-09-30T01:21:06;8.53;;;4.33;;
803;SDS011;25687;49.976;8.240;2023-09-30T01:23:32;7.93;;;4.20;;
803;SDS011;25687;49.976;8.240;2023-09-30T01:26:04;9.97;;;4.30;;
803;SDS011;25687;49.976;8.240;2023-09-30T01:28:33;7.43;;;4.20;;
803;SDS011;25687;49.976;8.240;2023-09-30T01:30:59;9.07;;;4.80;;
803;SDS011;25687;49.976;8.240;2023-09-30T01:33:24;7.57;;;4.03;;
803;SDS011;25687;49.976;8.240;2023-09-30T01:35:50;8.20;;;4.40;;
803;SDS011;25687;49.976;8.240;2023-09-30T01:38:15;9.87;;;4.73;;
803;SDS011;25687;49.976;8.240;2023-09-30T01:40:40;10.30;;;4.63;;
803;SDS011;25687;49.976;8.240;2023-09-30T01:43:07;9.63;;;4.77;;
803;SDS011;25687;49.976;8.240;2023-09-30T01:45:32;11.50;;;5.77;;
803;SDS011;25687;49.976;8.240;2023-09-30T01:47:57;9.83;;;4.67;;
803;SDS011;25687;49.976;8.240;2023-09-30T01:50:23;11.70;;;5.00;;
803;SDS011;25687;49.976;8.240;2023-09-30T01:52:48;14.03;;;5.63;;
803;SDS011;25687;49.976;8.240;2023-09-30T01:55:13;13.07;;;5.17;;
803;SDS011;25687;49.976;8.240;2023-09-30T01:57:39;10.33;;;5.27;;
803;SDS011;25687;49.976;8.240;2023-09-30T02:00:04;18.17;;;5.47;;
803;SDS011;25687;49.976;8.240;2023-09-30T02:02:33;18.10;;;5.40;;
803;SDS011;25687;49.976;8.240;2023-09-30T02:04:59;12.37;;;4.97;;
803;SDS011;25687;49.976;8.240;2023-09-30T02:07:24;15.13;;;6.37;;
803;SDS011;25687;49.976;8.240;2023-09-30T02:09:49;14.30;;;5.87;;
803;SDS011;25687;49.976;8.240;2023-09-30T02:12:15;12.30;;;5.40;;
803;SDS011;25687;49.976;8.240;2023-09-30T02:14:40;10.63;;;5.30;;
803;SDS011;25687;49.976;8.240;2023-09-30T02:17:05;10.27;;;5.30;;
803;SDS011;25687;49.976;8.240;2023-09-30T02:19:31;12.37;;;5.23;;
803;SDS011;25687;49.976;8.240;2023-09-30T02:21:58;11.87;;;5.90;;
803;SDS011;25687;49.976;8.240;2023-09-30T02:24:24;13.67;;;6.00;;
803;SDS011;25687;49.976;8.240;2023-09-30T02:26:49;12.43;;;5.57;;
803;SDS011;25687;49.976;8.240;2023-09-30T02:29:15;14.10;;;5.77;;
803;SDS011;25687;49.976;8.240;2023-09-30T02:31:40;16.73;;;6.87;;
803;SDS011;25687;49.976;8.240;2023-09-30T02:34:06;11.57;;;6.67;;
803;SDS011;25687;49.976;8.240;2023-09-30T02:36:31;10.17;;;6.07;;
803;SDS011;25687;49.976;8.240;2023-09-30T02:38:58;15.17;;;6.40;;
803;SDS011;25687;49.976;8.240;2023-09-30T02:41:23;10.80;;;5.80;;
803;SDS011;25687;49.976;8.240;2023-09-30T02:43:48;9.30;;;5.83;;
803;SDS011;25687;49.976;8.240;2023-09-30T02:46:14;10.43;;;6.13;;
803;SDS011;25687;49.976;8.240;2023-09-30T02:48:40;9.37;;;6.00;;
803;SDS011;25687;49.976;8.240;2023-09-30T02:51:09;12.83;;;5.93;;
803;SDS011;25687;49.976;8.240;2023-09-30T02:53:36;12.47;;;6.57;;
803;SDS011;25687;49.976;8.240;2023-09-30T02:56:01;11.63;;;7.10;;
803;SDS011;25687;49.976;8.240;2023-09-30T02:58:26;13.33;;;6.77;;
803;SDS011;25687;49.976;8.240;2023-09-30T03:00:54;12.23;;;6.00;;
803;SDS011;25687;49.976;8.240;2023-09-30T03:03:19;8.73;;;5.87;;
803;SDS011;25687;49.976;8.240;2023-09-30T03:05:44;14.47;;;6.47;;
803;SDS011;25687;49.976;8.240;2023-09-30T03:08:10;14.27;;;7.40;;
803;SDS011;25687;49.976;8.240;2023-09-30T03:10:35;10.03;;;6.27;;
803;SDS011;25687;49.976;8.240;2023-09-30T03:13:05;11.90;;;6.77;;
803;SDS011;25687;49.976;8.240;2023-09-30T03:15:32;9.97;;;6.43;;
803;SDS011;25687;49.976;8.240;2023-09-30T03:17:58;12.57;;;6.13;;
803;SDS011;25687;49.976;8.240;2023-09-30T03:20:24;10.43;;;6.77;;
803;SDS011;25687;49.976;8.240;2023-09-30T03:22:50;13.50;;;6.67;;
803;SDS011;25687;49.976;8.240;2023-09-30T03:25:17;15.90;;;6.40;;
803;SDS011;25687;49.976;8.240;2023-09-30T03:27:44;13.83;;;6.03;;
803;SDS011;25687;49.976;8.240;2023-09-30T03:30:13;11.27;;;6.57;;
803;SDS011;25687;49.976;8.240;2023-09-30T03:32:40;12.53;;;6.50;;
803;SDS011;25687;49.976;8.240;2023-09-30T03:35:06;12.90;;;7.20;;
803;SDS011;25687;49.976;8.240;2023-09-30T03:37:32;13.47;;;7.20;;
803;SDS011;25687;49.976;8.240;2023-09-30T03:39:58;14.10;;;6.93;;
803;SDS011;25687;49.976;8.240;2023-09-30T03:42:23;15.00;;;7.80;;
803;SDS011;25687;49.976;8.240;2023-09-30T03:44:49;11.90;;;7.40;;
803;SDS011;25687;49.976;8.240;2023-09-30T03:47:18;15.57;;;6.97;;
803;SDS011;25687;49.976;8.240;2023-09-30T03:49:43;10.97;;;7.50;;
803;SDS011;25687;49.976;8.240;2023-09-30T03:52:09;16.87;;;8.27;;
803;SDS011;25687;49.976;8.240;2023-09-30T03:54:35;20.17;;;7.87;;
803;SDS011;25687;49.976;8.240;2023-09-30T03:57:01;13.83;;;8.27;;
803;SDS011;25687;49.976;8.240;2023-09-30T03:59:28;15.90;;;8.63;;
803;SDS011;25687;49.976;8.240;2023-09-30T04:01:53;11.57;;;8.07;;
803;SDS011;25687;49.976;8.240;2023-09-30T04:04:19;14.83;;;7.67;;
803;SDS011;25687;49.976;8.240;2023-09-30T04:06:46;20.13;;;8.60;;
803;SDS011;25687;49.976;8.240;2023-09-30T04:09:12;11.47;;;6.73;;
803;SDS011;25687;49.976;8.240;2023-09-30T04:11:38;13.07;;;7.93;;
803;SDS011;25687;49.976;8.240;2023-09-30T04:14:04;18.63;;;8.63;;
803;SDS011;25687;49.976;8.240;2023-09-30T04:16:31;14.53;;;8.03;;
803;SDS011;25687;49.976;8.240;2023-09-30T04:18:57;17.23;;;7.37;;
803;SDS011;25687;49.976;8.240;2023-09-30T04:21:22;14.37;;;7.37;;
803;SDS011;25687;49.976;8.240;2023-09-30T04:23:47;10.40;;;6.90;;
803;SDS011;25687;49.976;8.240;2023-09-30T04:26:14;14.00;;;7.60;;
803;SDS011;25687;49.976;8.240;2023-09-30T04:28:40;15.00;;;7.80;;
803;SDS011;25687;49.976;8.240;2023-09-30T04:31:05;12.30;;;7.83;;
803;SDS011;25687;49.976;8.240;2023-09-30T04:33:32;11.87;;;6.63;;
803;SDS011;25687;49.976;8.240;2023-09-30T04:36:00;14.40;;;7.10;;
803;SDS011;25687;49.976;8.240;2023-09-30T04:38:25;15.10;;;7.73;;
803;SDS011;25687;49.976;8.240;2023-09-30T04:40:51;13.00;;;7.80;;
803;SDS011;25687;49.976;8.240;2023-09-30T04:43:17;12.13;;;6.60;;
803;SDS011;25687;49.976;8.240;2023-09-30T04:45:42;11.07;;;7.03;;
803;SDS011;25687;49.976;8.240;2023-09-30T04:48:08;10.97;;;7.00;;
803;SDS011;25687;49.976;8.240;2023-09-30T04:50:33;13.00;;;7.07;;
803;SDS011;25687;49.976;8.240;2023-09-30T04:52:59;13.53;;;7.57;;
803;SDS011;25687;49.976;8.240;2023-09-30T04:55:24;12.33;;;7.43;;
803;SDS011;25687;49.976;8.240;2023-09-30T04:57:49;14.93;;;8.93;;
803;SDS011;25687;49.976;8.240;2023-09-30T05:00:16;13.90;;;9.70;;
803;SDS011;25687;49.976;8.240;2023-09-30T05:02:44;15.27;;;9.80;;
803;SDS011;25687;49.976;8.240;2023-09-30T05:05:12;13.63;;;9.13;;
803;SDS011;25687;49.976;8.240;2023-09-30T05:07:39;14.40;;;9.67;;
803;SDS011;25687;49.976;8.240;2023-09-30T05:10:05;12.60;;;9.87;;
803;SDS011;25687;49.976;8.240;2023-09-30T05:12:35;14.23;;;8.80;;
803;SDS011;25687;49.976;8.240;2023-09-30T05:15:00;12.63;;;9.60;;
803;SDS011;25687;49.976;8.240;2023-09-30T05:17:26;15.57;;;9.27;;
803;SDS011;25687;49.976;8.240;2023-09-30T05:19:53;13.63;;;9.53;;
803;SDS011;25687;49.976;8.240;2023-09-30T05:22:18;11.47;;;9.50;;
803;SDS011;25687;49.976;8.240;2023-09-30T05:24:48;15.10;;;10.33;;
803;SDS011;25687;49.976;8.240;2023-09-30T05:27:13;11.20;;;9.33;;
803;SDS011;25687;49.976;8.240;2023-09-30T05:29:39;14.23;;;9.57;;
803;SDS011;25687;49.976;8.240;2023-09-30T05:32:04;17.27;;;10.77;;
803;SDS011;25687;49.976;8.240;2023-09-30T05:34:29;15.13;;;9.23;;
803;SDS011;25687;49.976;8.240;2023-09-30T05:36:54;13.87;;;10.00;;
803;SDS011;25687;49.976;8.240;2023-09-30T05:39:20;17.17;;;9.07;;
803;SDS011;25687;49.976;8.240;2023-09-30T05:41:46;14.47;;;9.60;;
803;SDS011;25687;49.976;8.240;2023-09-30T05:44:12;13.83;;;9.10;;
803;SDS011;25687;49.976;8.240;2023-09-30T05:46:39;13.90;;;8.93;;
803;SDS011;25687;49.976;8.240;2023-09-30T05:49:04;20.33;;;9.83;;
803;SDS011;25687;49.976;8.240;2023-09-30T05:51:34;14.17;;;9.67;;
803;SDS011;25687;49.976;8.240;2023-09-30T05:54:00;14.80;;;9.50;;
803;SDS011;25687;49.976;8.240;2023-09-30T05:56:25;17.73;;;9.10;;
803;SDS011;25687;49.976;8.240;2023-09-30T05:58:52;14.73;;;8.87;;
803;SDS011;25687;49.976;8.240;2023-09-30T06:01:17;14.07;;;9.03;;
803;SDS011;25687;49.976;8.240;2023-09-30T06:03:44;14.67;;;8.90;;
803;SDS011;25687;49.976;8.240;2023-09-30T06:06:14;14.30;;;8.60;;
803;SDS011;25687;49.976;8.240;2023-09-30T06:08:41;14.13;;;8.43;;
803;SDS011;25687;49.976;8.240;2023-09-30T06:11:18;15.07;;;8.77;;
803;SDS011;25687;49.976;8.240;2023-09-30T06:13:55;14.60;;;7.93;;
803;SDS011;25687;49.976;8.240;2023-09-30T06:16:24;15.00;;;7.87;;
803;SDS011;25687;49.976;8.240;2023-09-30T06:18:51;12.27;;;7.50;;
803;SDS011;25687;49.976;8.240;2023-09-30T06:21:16;11.87;;;7.23;;
803;SDS011;25687;49.976;8.240;2023-09-30T06:23:46;16.20;;;7.67;;
803;SDS011;25687;49.976;8.240;2023-09-30T06:26:14;13.87;;;7.70;;
803;SDS011;25687;49.976;8.240;2023-09-30T06:28:40;12.50;;;6.57;;
803;SDS011;25687;49.976;8.240;2023-09-30T06:31:06;11.30;;;5.93;;
803;SDS011;25687;49.976;8.240;2023-09-30T06:33:33;13.43;;;5.77;;
803;SDS011;25687;49.976;8.240;2023-09-30T06:35:58;9.50;;;5.40;;
803;SDS011;25687;49.976;8.240;2023-09-30T06:38:27;13.73;;;6.10;;
803;SDS011;25687;49.976;8.240;2023-09-30T06:40:52;13.50;;;5.90;;
803;SDS011;25687;49.976;8.240;2023-09-30T06:43:18;14.10;;;5.70;;
803;SDS011;25687;49.976;8.240;2023-09-30T06:45:44;12.60;;;5.73;;
803;SDS011;25687;49.976;8.240;2023-09-30T06:48:11;11.90;;;5.00;;
803;SDS011;25687;49.976;8.240;2023-09-30T06:50:43;14.30;;;5.80;;
803;SDS011;25687;49.976;8.240;2023-09-30T06:53:10;13.77;;;5.13;;
803;SDS011;25687;49.976;8.240;2023-09-30T06:55:37;11.60;;;5.10;;
803;SDS011;25687;49.976;8.240;2023-09-30T06:58:04;13.97;;;6.00;;
803;SDS011;25687;49.976;8.240;2023-09-30T07:00:32;9.90;;;5.50;;
803;SDS011;25687;49.976;8.240;2023-09-30T07:02:58;10.70;;;5.33;;
803;SDS011;25687;49.976;8.240;2023-09-30T07:05:24;12.47;;;5.73;;
803;SDS011;25687;49.976;8.240;2023-09-30T07:07:49;13.93;;;5.47;;
803;SDS011;25687;49.976;8.240;2023-09-30T07:10:16;13.13;;;5.37;;
803;SDS011;25687;49.976;8.240;2023-09-30T07:12:41;11.17;;;5.63;;
803;SDS011;25687;49.976;8.240;2023-09-30T07:15:07;13.87;;;5.20;;
803;SDS011;25687;49.976;8.240;2023-09-30T07:17:33;9.70;;;5.33;;
803;SDS011;25687;49.976;8.240;2023-09-30T07:19:59;9.37;;;4.87;;
803;SDS011;25687;49.976;8.240;2023-09-30T07:22:24;11.07;;;5.10;;
803;SDS011;25687;49.976;8.240;2023-09-30T07:24:50;10.20;;;5.63;;
803;SDS011;25687;49.976;8.240;2023-09-30T07:27:15;12.93;;;5.23;;
803;SDS011;25687;49.976;8.240;2023-09-30T07:29:41;12.17;;;5.77;;
803;SDS011;25687;49.976;8.240;2023-09-30T07:32:07;10.87;;;5.30;;
803;SDS011;25687;49.976;8.240;2023-09-30T07:34:33;9.90;;;5.77;;
803;SDS011;25687;49.976;8.240;2023-09-30T07:36:58;10.80;;;5.53;;
803;SDS011;25687;49.976;8.240;2023-09-30T07:39:23;10.80;;;5.93;;
803;SDS011;25687;49.976;8.240;2023-09-30T07:41:49;10.57;;;5.90;;
803;SDS011;25687;49.976;8.240;2023-09-30T07:44:14;8.37;;;5.60;;
803;SDS011;25687;49.976;8.240;2023-09-30T07:46:40;10.27;;;6.00;;
803;SDS011;25687;49.976;8.240;2023-09-30T07:49:05;16.27;;;6.53;;
803;SDS011;25687;49.976;8.240;2023-09-30T07:51:32;10.77;;;5.20;;
803;SDS011;25687;49.976;8.240;2023-09-30T07:53:57;10.07;;;4.57;;
803;SDS011;25687;49.976;8.240;2023-09-30T07:56:22;14.10;;;5.23;;
803;SDS011;25687;49.976;8.240;2023-09-30T07:58:48;15.57;;;5.77;;
803;SDS011;25687;49.976;8.240;2023-09-30T08:01:14;9.73;;;5.17;;
803;SDS011;25687;49.976;8.240;2023-09-30T08:03:40;12.70;;;6.00;;
803;SDS011;25687;49.976;8.240;2023-09-30T08:06:06;12.03;;;6.07;;
803;SDS011;25687;49.976;8.240;2023-09-30T08:08:32;11.60;;;6.13;;
803;SDS011;25687;49.976;8.240;2023-09-30T08:10:57;13.73;;;6.53;;
803;SDS011;25687;49.976;8.240;2023-09-30T08:13:23;15.13;;;7.47;;
803;SDS011;25687;49.976;8.240;2023-09-30T08:15:51;15.13;;;6.87;;
803;SDS011;25687;49.976;8.240;2023-09-30T08:18:18;15.60;;;7.13;;
803;SDS011;25687;49.976;8.240;2023-09-30T08:20:43;11.93;;;7.00;;
803;SDS011;25687;49.976;8.240;2023-09-30T08:23:09;15.93;;;6.53;;
803;SDS011;25687;49.976;8.240;2023-09-30T08:25:34;14.30;;;7.87;;
803;SDS011;25687;49.976;8.240;2023-09-30T08:27:59;10.30;;;7.07;;
803;SDS011;25687;49.976;8.240;2023-09-30T08:30:25;13.23;;;6.47;;
803;SDS011;25687;49.976;8.240;2023-09-30T08:32:51;13.23;;;6.80;;
803;SDS011;25687;49.976;8.240;2023-09-30T08:35:16;11.13;;;5.60;;
803;SDS011;25687;49.976;8.240;2023-09-30T08:37:41;10.67;;;5.77;;
803;SDS011;25687;49.976;8.240;2023-09-30T08:40:07;11.47;;;6.03;;
803;SDS011;25687;49.976;8.240;2023-09-30T08:42:34;11.60;;;6.33;;
803;SDS011;25687;49.976;8.240;2023-09-30T08:45:00;9.53;;;5.67;;
803;SDS011;25687;49.976;8.240;2023-09-30T08:47:26;12.23;;;5.93;;
803;SDS011;25687;49.976;8.240;2023-09-30T08:49:56;8.83;;;5.30;;
803;SDS011;25687;49.976;8.240;2023-09-30T08:52:30;10.57;;;5.80;;
803;SDS011;25687;49.976;8.240;2023-09-30T08:54:57;12.80;;;6.47;;
803;SDS011;25687;49.976;8.240;2023-09-30T08:57:22;11.80;;;6.37;;
803;SDS011;25687;49.976;8.240;2023-09-30T08:59:49;10.97;;;6.80;;
803;SDS011;25687;49.976;8.240;2023-09-30T09:02:17;10.90;;;5.47;;
803;SDS011;25687;49.976;8.240;2023-09-30T09:04:43;13.50;;;5.63;;
803;SDS011;25687;49.976;8.240;2023-09-30T09:07:11;8.82;;;4.30;;
803;SDS011;25687;49.976;8.240;2023-09-30T09:09:36;9.23;;;4.50;;
803;SDS011;25687;49.976;8.240;2023-09-30T09:12:02;11.48;;;4.25;;
803;SDS011;25687;49.976;8.240;2023-09-30T09:14:37;11.65;;;4.45;;
803;SDS011;25687;49.976;8.240;2023-09-30T09:17:08;8.32;;;4.32;;
803;SDS011;25687;49.976;8.240;2023-09-30T09:19:34;7.82;;;3.92;;
803;SDS011;25687;49.976;8.240;2023-09-30T09:22:00;7.43;;;4.15;;
803;SDS011;25687;49.976;8.240;2023-09-30T09:24:36;6.68;;;3.50;;
803;SDS011;25687;49.976;8.240;2023-09-30T09:27:07;7.82;;;3.90;;
803;SDS011;25687;49.976;8.240;2023-09-30T09:29:34;8.77;;;4.63;;
803;SDS011;25687;49.976;8.240;2023-09-30T09:32:07;9.45;;;3.90;;
803;SDS011;25687;49.976;8.240;2023-09-30T09:34:42;5.65;;;3.47;;
803;SDS011;25687;49.976;8.240;2023-09-30T09:37:27;6.80;;;3.80;;
803;SDS011;25687;49.976;8.240;2023-09-30T09:39:53;7.55;;;3.88;;
803;SDS011;25687;49.976;8.240;2023-09-30T09:42:25;6.63;;;4.07;;
803;SDS011;25687;49.976;8.240;2023-09-30T09:44:54;9.25;;;3.92;;
803;SDS011;25687;49.976;8.240;2023-09-30T09:47:21;8.30;;;3.83;;
803;SDS011;25687;49.976;8.240;2023-09-30T09:49:46;7.40;;;3.75;;
803;SDS011;25687;49.976;8.240;2023-09-30T09:52:12;5.43;;;3.60;;
803;SDS011;25687;49.976;8.240;2023-09-30T09:54:40;6.70;;;3.55;;
803;SDS011;25687;49.976;8.240;2023-09-30T09:57:06;7.20;;;4.10;;
803;SDS011;25687;49.976;8.240;2023-09-30T09:59:34;7.05;;;4.38;;
803;SDS011;25687;49.976;8.240;2023-09-30T10:02:01;6.43;;;3.95;;
803;SDS011;25687;49.976;8.240;2023-09-30T10:04:34;5.82;;;3.78;;
803;SDS011;25687;49.976;8.240;2023-09-30T10:06:59;6.03;;;4.00;;
803;SDS011;25687;49.976;8.240;2023-09-30T10:09:25;7.70;;;4.13;;
803;SDS011;25687;49.976;8.240;2023-09-30T10:11:57;8.60;;;4.20;;
803;SDS011;25687;49.976;8.240;2023-09-30T10:14:30;7.65;;;3.97;;
803;SDS011;25687;49.976;8.240;2023-09-30T10:17:00;7.32;;;3.83;;
803;SDS011;25687;49.976;8.240;2023-09-30T10:19:26;8.38;;;3.70;;
803;SDS011;25687;49.976;8.240;2023-09-30T10:24:44;6.80;;;3.88;;
803;SDS011;25687;49.976;8.240;2023-09-30T10:30:08;7.82;;;5.28;;
803;SDS011;25687;49.976;8.240;2023-09-30T10:38:36;8.93;;;4.57;;
803;SDS011;25687;49.976;8.240;2023-09-30T10:40:47;8.73;;;4.00;;
803;SDS011;25687;49.976;8.240;2023-09-30T10:43:32;9.53;;;4.30;;
803;SDS011;25687;49.976;8.240;2023-09-30T10:45:59;8.70;;;3.80;;
803;SDS011;25687;49.976;8.240;2023-09-30T10:50:51;8.23;;;3.37;;
803;SDS011;25687;49.976;8.240;2023-09-30T10:53:26;5.50;;;3.57;;
803;SDS011;25687;49.976;8.240;2023-09-30T10:55:54;8.50;;;4.13;;
803;SDS011;25687;49.976;8.240;2023-09-30T11:01:09;6.47;;;3.80;;
803;SDS011;25687;49.976;8.240;2023-09-30T11:03:34;6.07;;;3.70;;
803;SDS011;25687;49.976;8.240;2023-09-30T11:06:00;6.00;;;3.30;;
803;SDS011;25687;49.976;8.240;2023-09-30T11:08:25;6.37;;;3.57;;
803;SDS011;25687;49.976;8.240;2023-09-30T11:10:55;4.03;;;3.13;;
803;SDS011;25687;49.976;8.240;2023-09-30T11:13:21;6.80;;;3.60;;
803;SDS011;25687;49.976;8.240;2023-09-30T11:15:47;9.27;;;3.63;;
803;SDS011;25687;49.976;8.240;2023-09-30T11:18:13;6.03;;;3.83;;
803;SDS011;25687;49.976;8.240;2023-09-30T11:20:39;7.00;;;3.50;;
803;SDS011;25687;49.976;8.240;2023-09-30T11:23:05;6.53;;;3.67;;
803;SDS011;25687;49.976;8.240;2023-09-30T11:25:34;6.20;;;3.50;;
803;SDS011;25687;49.976;8.240;2023-09-30T11:28:18;9.43;;;3.60;;
803;SDS011;25687;49.976;8.240;2023-09-30T11:30:56;6.17;;;3.70;;
803;SDS011;25687;49.976;8.240;2023-09-30T11:33:22;6.10;;;3.87;;
803;SDS011;25687;49.976;8.240;2023-09-30T11:35:58;7.40;;;3.77;;
803;SDS011;25687;49.976;8.240;2023-09-30T11:38:25;6.83;;;3.93;;
803;SDS011;25687;49.976;8.240;2023-09-30T11:40:58;7.40;;;3.80;;
803;SDS011;25687;49.976;8.240;2023-09-30T11:43:27;6.47;;;4.03;;
803;SDS011;25687;49.976;8.240;2023-09-30T11:45:52;6.37;;;4.37;;
803;SDS011;25687;49.976;8.240;2023-09-30T11:48:18;5.30;;;3.53;;
803;SDS011;25687;49.976;8.240;2023-09-30T11:50:48;6.63;;;3.87;;
803;SDS011;25687;49.976;8.240;2023-09-30T11:53:15;9.17;;;4.07;;
803;SDS011;25687;49.976;8.240;2023-09-30T11:55:41;6.50;;;3.60;;
803;SDS011;25687;49.976;8.240;2023-09-30T11:58:07;5.20;;;3.80;;
803;SDS011;25687;49.976;8.240;2023-09-30T12:00:34;6.33;;;3.27;;
803;SDS011;25687;49.976;8.240;2023-09-30T12:03:00;5.97;;;3.60;;
803;SDS011;25687;49.976;8.240;2023-09-30T12:05:25;6.83;;;4.13;;
803;SDS011;25687;49.976;8.240;2023-09-30T12:07:50;7.23;;;4.03;;
803;SDS011;25687;49.976;8.240;2023-09-30T12:10:16;7.00;;;3.87;;
803;SDS011;25687;49.976;8.240;2023-09-30T12:12:41;6.27;;;3.53;;
803;SDS011;25687;49.976;8.240;2023-09-30T12:15:06;6.50;;;4.00;;
803;SDS011;25687;49.976;8.240;2023-09-30T12:17:34;8.60;;;3.90;;
803;SDS011;25687;49.976;8.240;2023-09-30T12:19:59;6.67;;;4.20;;
803;SDS011;25687;49.976;8.240;2023-09-30T12:22:24;8.00;;;4.40;;
803;SDS011;25687;49.976;8.240;2023-09-30T12:24:50;6.30;;;3.90;;
803;SDS011;25687;49.976;8.240;2023-09-30T12:27:17;4.83;;;3.27;;
803;SDS011;25687;49.976;8.240;2023-09-30T12:29:42;8.37;;;4.53;;
803;SDS011;25687;49.976;8.240;2023-09-30T12:32:07;8.13;;;4.23;;
803;SDS011;25687;49.976;8.240;2023-09-30T12:34:34;6.03;;;4.20;;
803;SDS011;25687;49.976;8.240;2023-09-30T12:37:00;6.27;;;3.73;;
803;SDS011;25687;49.976;8.240;2023-09-30T12:39:26;5.67;;;3.87;;
803;SDS011;25687;49.976;8.240;2023-09-30T12:41:55;8.77;;;4.00;;
803;SDS011;25687;49.976;8.240;2023-09-30T12:44:20;7.00;;;3.73;;
803;SDS011;25687;49.976;8.240;2023-09-30T12:46:45;7.77;;;3.33;;
803;SDS011;25687;49.976;8.240;2023-09-30T12:49:11;6.27;;;3.17;;
803;SDS011;25687;49.976;8.240;2023-09-30T12:51:36;5.70;;;3.77;;
803;SDS011;25687;49.976;8.240;2023-09-30T12:54:02;4.70;;;3.63;;
803;SDS011;25687;49.976;8.240;2023-09-30T12:56:27;5.60;;;3.40;;
803;SDS011;25687;49.976;8.240;2023-09-30T12:58:56;5.63;;;3.67;;
803;SDS011;25687;49.976;8.240;2023-09-30T13:01:22;4.97;;;3.30;;
803;SDS011;25687;49.976;8.240;2023-09-30T13:03:47;5.83;;;3.30;;
803;SDS011;25687;49.976;8.240;2023-09-30T13:06:14;7.40;;;3.53;;
803;SDS011;25687;49.976;8.240;2023-09-30T13:08:40;5.20;;;3.37;;
803;SDS011;25687;49.976;8.240;2023-09-30T13:11:06;7.53;;;3.43;;
803;SDS011;25687;49.976;8.240;2023-09-30T13:13:32;5.07;;;3.37;;
803;SDS011;25687;49.976;8.240;2023-09-30T13:16:01;5.97;;;4.00;;
803;SDS011;25687;49.976;8.240;2023-09-30T13:18:27;5.03;;;3.27;;
803;SDS011;25687;49.976;8.240;2023-09-30T13:20:52;5.53;;;3.77;;
803;SDS011;25687;49.976;8.240;2023-09-30T13:23:18;5.90;;;4.07;;
803;SDS011;25687;49.976;8.240;2023-09-30T13:25:44;7.07;;;3.67;;
803;SDS011;25687;49.976;8.240;2023-09-30T13:28:09;6.87;;;3.73;;
803;SDS011;25687;49.976;8.240;2023-09-30T13:30:35;5.83;;;3.53;;
803;SDS011;25687;49.976;8.240;2023-09-30T13:33:00;5.53;;;3.43;;
803;SDS011;25687;49.976;8.240;2023-09-30T13:35:26;5.13;;;3.47;;
803;SDS011;25687;49.976;8.240;2023-09-30T13:37:51;7.03;;;3.87;;
803;SDS011;25687;49.976;8.240;2023-09-30T13:40:17;5.83;;;3.87;;
803;SDS011;25687;49.976;8.240;2023-09-30T13:42:42;5.37;;;3.43;;
803;SDS011;25687;49.976;8.240;2023-09-30T13:45:07;7.20;;;3.93;;
803;SDS011;25687;49.976;8.240;2023-09-30T13:47:34;6.80;;;3.73;;
803;SDS011;25687;49.976;8.240;2023-09-30T13:50:00;4.83;;;3.40;;
803;SDS011;25687;49.976;8.240;2023-09-30T13:52:26;6.57;;;3.30;;
803;SDS011;25687;49.976;8.240;2023-09-30T13:54:51;4.97;;;3.77;;
803;SDS011;25687;49.976;8.240;2023-09-30T13:57:16;6.07;;;3.73;;
803;SDS011;25687;49.976;8.240;2023-09-30T13:59:41;6.13;;;3.83;;
803;SDS011;25687;49.976;8.240;2023-09-30T14:02:07;5.57;;;3.73;;
803;SDS011;25687;49.976;8.240;2023-09-30T14:04:32;7.53;;;3.80;;
803;SDS011;25687;49.976;8.240;2023-09-30T14:07:00;4.93;;;3.53;;
803;SDS011;25687;49.976;8.240;2023-09-30T14:09:27;5.93;;;3.63;;
803;SDS011;25687;49.976;8.240;2023-09-30T14:11:52;5.17;;;3.60;;
803;SDS011;25687;49.976;8.240;2023-09-30T14:14:18;6.50;;;4.23;;
803;SDS011;25687;49.976;8.240;2023-09-30T14:16:43;5.87;;;3.80;;
803;SDS011;25687;49.976;8.240;2023-09-30T14:19:08;7.83;;;4.27;;
803;SDS011;25687;49.976;8.240;2023-09-30T14:21:34;6.53;;;3.87;;
803;SDS011;25687;49.976;8.240;2023-09-30T14:23:59;5.47;;;3.63;;
803;SDS011;25687;49.976;8.240;2023-09-30T14:26:26;7.43;;;3.97;;
803;SDS011;25687;49.976;8.240;2023-09-30T14:28:52;7.03;;;4.17;;
803;SDS011;25687;49.976;8.240;2023-09-30T14:31:17;7.10;;;4.43;;
803;SDS011;25687;49.976;8.240;2023-09-30T14:33:42;6.10;;;3.83;;
803;SDS011;25687;49.976;8.240;2023-09-30T14:36:08;5.93;;;4.10;;
803;SDS011;25687;49.976;8.240;2023-09-30T14:38:33;6.90;;;4.07;;
803;SDS011;25687;49.976;8.240;2023-09-30T14:40:58;5.77;;;3.63;;
803;SDS011;25687;49.976;8.240;2023-09-30T14:43:24;5.00;;;3.83;;
803;SDS011;25687;49.976;8.240;2023-09-30T14:45:49;6.40;;;4.20;;
803;SDS011;25687;49.976;8.240;2023-09-30T14:48:14;5.43;;;3.90;;
803;SDS011;25687;49.976;8.240;2023-09-30T14:50:49;4.57;;;3.43;;
803;SDS011;25687;49.976;8.240;2023-09-30T14:53:15;6.97;;;4.17;;
803;SDS011;25687;49.976;8.240;2023-09-30T14:55:41;5.73;;;4.10;;
803;SDS011;25687;49.976;8.240;2023-09-30T14:58:06;5.83;;;4.07;;
803;SDS011;25687;49.976;8.240;2023-09-30T15:00:32;8.50;;;3.90;;
803;SDS011;25687;49.976;8.240;2023-09-30T15:02:57;5.07;;;3.73;;
803;SDS011;25687;49.976;8.240;2023-09-30T15:05:22;5.87;;;4.23;;
803;SDS011;25687;49.976;8.240;2023-09-30T15:07:49;5.70;;;3.87;;
803;SDS011;25687;49.976;8.240;2023-09-30T15:10:14;6.43;;;3.70;;
803;SDS011;25687;49.976;8.240;2023-09-30T15:12:39;5.07;;;3.57;;
803;SDS011;25687;49.976;8.240;2023-09-30T15:15:05;6.77;;;4.23;;
803;SDS011;25687;49.976;8.240;2023-09-30T15:17:30;5.47;;;4.17;;
803;SDS011;25687;49.976;8.240;2023-09-30T15:19:57;7.10;;;4.17;;